createdAt,value
2018-11-27T00:00:49.511Z,20.97
2018-11-27T00:03:19.196Z,19.53
2018-11-27T00:05:48.799Z,20.50
2018-11-27T00:08:18.510Z,22.00
2018-11-27T00:10:48.225Z,21.83
2018-11-27T00:13:17.847Z,21.40
2018-11-27T00:15:47.426Z,23.83
2018-11-27T00:18:17.552Z,22.60
2018-11-27T00:20:47.138Z,22.17
2018-11-27T00:23:16.719Z,23.00
2018-11-27T00:25:46.374Z,25.17
2018-11-27T00:28:15.969Z,24.07
2018-11-27T00:30:45.661Z,26.90
2018-11-27T00:33:15.294Z,26.73
2018-11-27T00:35:44.911Z,24.87
2018-11-27T00:38:14.528Z,25.40
2018-11-27T00:40:44.139Z,22.60
2018-11-27T00:43:13.826Z,23.87
2018-11-27T00:45:43.455Z,23.40
2018-11-27T00:48:13.037Z,23.00
2018-11-27T00:50:42.656Z,24.63
2018-11-27T00:53:12.341Z,23.57
2018-11-27T00:55:42.010Z,22.17
2018-11-27T00:58:11.569Z,28.57
2018-11-27T01:00:41.158Z,26.90
2018-11-27T01:03:10.865Z,27.77
2018-11-27T01:05:40.768Z,25.07
2018-11-27T01:08:10.476Z,27.10
2018-11-27T01:10:40.136Z,25.37
2018-11-27T01:13:09.732Z,25.90
2018-11-27T01:15:39.399Z,24.57
2018-11-27T01:18:08.989Z,25.47
2018-11-27T01:20:38.638Z,25.30
2018-11-27T01:23:08.899Z,24.73
2018-11-27T01:25:39.347Z,23.60
2018-11-27T01:28:09.057Z,24.27
2018-11-27T01:30:38.674Z,24.03
2018-11-27T01:33:08.341Z,24.23
2018-11-27T01:35:38.095Z,21.90
2018-11-27T01:38:07.689Z,22.27
2018-11-27T01:40:37.406Z,22.90
2018-11-27T01:43:07.331Z,23.20
2018-11-27T01:45:37.032Z,22.03
2018-11-27T01:48:06.809Z,21.20
2018-11-27T01:50:36.541Z,21.77
2018-11-27T01:53:06.717Z,20.80
2018-11-27T01:55:36.349Z,23.97
2018-11-27T01:58:06.585Z,23.20
2018-11-27T02:00:36.402Z,22.97
2018-11-27T02:03:06.009Z,20.73
2018-11-27T02:05:35.595Z,21.27
2018-11-27T02:08:05.425Z,22.13
2018-11-27T02:10:35.059Z,21.77
2018-11-27T02:13:04.735Z,21.23
2018-11-27T02:15:34.396Z,21.90
2018-11-27T02:18:04.009Z,21.87
2018-11-27T02:20:33.834Z,24.47
2018-11-27T02:23:03.458Z,24.43
2018-11-27T02:25:33.067Z,23.30
2018-11-27T02:28:02.783Z,24.13
2018-11-27T02:30:32.359Z,23.23
2018-11-27T02:33:02.086Z,21.23
2018-11-27T02:35:31.757Z,23.30
2018-11-27T02:38:01.431Z,24.27
2018-11-27T02:40:31.107Z,23.73
2018-11-27T02:43:00.796Z,21.87
2018-11-27T02:45:30.523Z,25.20
2018-11-27T02:48:00.135Z,23.57
2018-11-27T02:50:29.791Z,22.10
2018-11-27T02:52:59.350Z,22.70
2018-11-27T02:55:28.987Z,21.37
2018-11-27T02:57:58.581Z,23.27
2018-11-27T03:00:28.960Z,23.57
2018-11-27T03:02:58.701Z,25.37
2018-11-27T03:05:36.910Z,25.60
2018-11-27T03:08:06.812Z,25.13
2018-11-27T03:10:36.390Z,24.60
2018-11-27T03:13:07.109Z,23.47
2018-11-27T03:15:36.804Z,24.40
2018-11-27T03:18:07.192Z,26.47
2018-11-27T03:20:36.800Z,25.20
2018-11-27T03:23:07.121Z,25.90
2018-11-27T03:25:37.219Z,25.50
2018-11-27T03:28:07.708Z,23.80
2018-11-27T03:30:37.308Z,24.63
2018-11-27T03:33:07.171Z,24.60
2018-11-27T03:35:36.819Z,22.80
2018-11-27T03:38:07.100Z,22.70
2018-11-27T03:40:36.694Z,22.97
2018-11-27T03:43:06.522Z,22.57
2018-11-27T03:45:36.427Z,22.70
2018-11-27T03:48:06.541Z,22.70
2018-11-27T03:50:36.171Z,21.93
2018-11-27T03:53:06.047Z,22.67
2018-11-27T03:55:36.175Z,23.47
2018-11-27T03:58:05.857Z,23.10
2018-11-27T04:00:35.570Z,22.50
2018-11-27T04:03:11.027Z,22.83
2018-11-27T04:05:41.436Z,24.03
2018-11-27T04:08:11.539Z,22.53
2018-11-27T04:10:42.357Z,23.87
2018-11-27T04:13:12.007Z,23.00
2018-11-27T04:15:41.733Z,23.83
2018-11-27T04:18:11.328Z,23.13
2018-11-27T04:20:41.073Z,24.83
2018-11-27T04:23:10.670Z,24.60
2018-11-27T04:25:40.357Z,22.67
2018-11-27T04:28:10.007Z,24.17
2018-11-27T04:30:39.674Z,23.50
2018-11-27T04:33:09.619Z,23.60
2018-11-27T04:35:39.251Z,23.80
2018-11-27T04:38:08.831Z,24.20
2018-11-27T04:40:38.455Z,23.97
2018-11-27T04:43:08.090Z,22.17
2018-11-27T04:45:37.705Z,20.87
2018-11-27T04:48:07.424Z,22.00
2018-11-27T04:50:37.212Z,21.63
2018-11-27T04:53:07.457Z,20.03
2018-11-27T04:55:37.156Z,20.70
2018-11-27T04:58:07.029Z,19.27
2018-11-27T05:00:36.650Z,21.43
2018-11-27T05:03:06.992Z,21.10
2018-11-27T05:05:36.815Z,18.27
2018-11-27T05:08:06.920Z,19.00
2018-11-27T05:10:36.617Z,20.90
2018-11-27T05:13:07.013Z,19.47
2018-11-27T05:15:36.666Z,20.10
2018-11-27T05:18:06.693Z,20.20
2018-11-27T05:20:36.467Z,22.33
2018-11-27T05:23:07.291Z,21.37
2018-11-27T05:25:36.957Z,20.13
2018-11-27T05:28:06.863Z,20.77
2018-11-27T05:30:36.649Z,21.67
2018-11-27T05:33:07.074Z,19.93
2018-11-27T05:35:36.747Z,20.30
2018-11-27T05:38:07.357Z,20.70
2018-11-27T05:40:37.022Z,17.80
2018-11-27T05:43:10.330Z,18.93
2018-11-27T05:45:40.026Z,21.20
2018-11-27T05:48:09.766Z,19.73
2018-11-27T05:50:39.488Z,20.17
2018-11-27T05:53:09.249Z,20.50
2018-11-27T05:55:39.063Z,22.27
2018-11-27T05:58:08.628Z,21.93
2018-11-27T06:00:38.376Z,20.77
2018-11-27T06:03:10.500Z,21.87
2018-11-27T06:05:40.356Z,21.67
2018-11-27T06:08:10.162Z,21.77
2018-11-27T06:10:39.863Z,22.87
2018-11-27T06:13:09.447Z,21.83
2018-11-27T06:15:39.074Z,21.40
2018-11-27T06:18:08.781Z,21.30
2018-11-27T06:20:38.450Z,22.83
2018-11-27T06:23:08.377Z,23.03
2018-11-27T06:25:38.097Z,20.50
2018-11-27T06:28:09.159Z,20.87
2018-11-27T06:30:39.226Z,20.03
2018-11-27T06:33:08.849Z,20.43
2018-11-27T06:35:43.516Z,20.20
2018-11-27T06:38:13.322Z,20.97
2018-11-27T06:40:43.810Z,21.43
2018-11-27T06:43:14.326Z,22.37
2018-11-27T06:45:44.959Z,21.67
2018-11-27T06:48:14.698Z,22.80
2018-11-27T06:50:44.279Z,25.30
2018-11-27T06:53:14.014Z,23.40
2018-11-27T06:55:43.726Z,23.87
2018-11-27T06:58:13.411Z,24.43
2018-11-27T07:00:43.648Z,24.27
2018-11-27T07:03:14.648Z,24.20
2018-11-27T07:05:44.269Z,25.40
2018-11-27T07:08:13.906Z,25.57
2018-11-27T07:10:45.638Z,28.10
2018-11-27T07:13:21.408Z,29.23
2018-11-27T07:15:52.037Z,31.80
2018-11-27T07:18:21.955Z,31.60
2018-11-27T07:20:51.639Z,31.60
2018-11-27T07:23:21.374Z,30.83
2018-11-27T07:25:51.222Z,32.87
2018-11-27T07:28:20.982Z,33.27
2018-11-27T07:30:50.672Z,32.67
2018-11-27T07:33:20.298Z,34.47
2018-11-27T07:35:50.216Z,32.60
2018-11-27T07:38:19.926Z,31.27
2018-11-27T07:40:49.637Z,32.60
2018-11-27T07:43:19.438Z,31.13
2018-11-27T07:45:49.357Z,31.97
2018-11-27T07:48:19.056Z,33.50
2018-11-27T07:50:48.619Z,32.03
2018-11-27T07:53:18.485Z,31.13
2018-11-27T07:55:48.078Z,30.93
2018-11-27T07:58:17.891Z,31.93
2018-11-27T08:00:47.495Z,30.83
2018-11-27T08:03:17.202Z,31.13
2018-11-27T08:05:46.840Z,31.97
2018-11-27T08:08:18.658Z,31.63
2018-11-27T08:10:49.624Z,32.40
2018-11-27T08:13:19.206Z,31.50
2018-11-27T08:15:48.815Z,29.60
2018-11-27T08:18:18.401Z,32.03
2018-11-27T08:20:48.029Z,31.27
2018-11-27T08:23:17.671Z,37.35
2018-11-27T08:25:47.346Z,33.50
2018-11-27T08:28:17.046Z,30.23
2018-11-27T08:30:46.654Z,31.20
2018-11-27T08:33:16.261Z,29.27
2018-11-27T08:35:45.905Z,29.40
2018-11-27T08:38:15.492Z,27.93
2018-11-27T08:40:45.076Z,33.10
2018-11-27T08:43:14.837Z,31.23
2018-11-27T08:45:44.399Z,27.77
2018-11-27T08:48:13.975Z,33.15
2018-11-27T08:50:43.532Z,28.17
2018-11-27T08:53:13.102Z,28.00
2018-11-27T08:55:44.759Z,27.70
2018-11-27T08:58:20.406Z,25.23
2018-11-27T09:00:50.258Z,26.50
2018-11-27T09:03:19.897Z,25.17
2018-11-27T09:05:49.407Z,24.13
2018-11-27T09:08:19.134Z,24.87
2018-11-27T09:10:48.705Z,26.83
2018-11-27T09:13:18.489Z,26.77
2018-11-27T09:15:48.172Z,25.20
2018-11-27T09:18:24.335Z,24.40
2018-11-27T09:20:54.021Z,24.10
2018-11-27T09:23:23.583Z,26.83
2018-11-27T09:25:53.298Z,19.67
2018-11-27T09:28:22.910Z,21.93
2018-11-27T09:30:52.545Z,23.43
2018-11-27T09:33:22.254Z,22.60
2018-11-27T09:35:52.577Z,21.40
2018-11-27T09:38:22.242Z,21.50
2018-11-27T09:40:52.026Z,21.23
2018-11-27T09:43:21.705Z,24.52
2018-11-27T09:45:51.828Z,21.77
2018-11-27T09:48:21.426Z,23.13
2018-11-27T09:50:50.998Z,21.60
2018-11-27T09:53:20.645Z,22.23
2018-11-27T09:55:50.286Z,22.87
2018-11-27T09:58:19.956Z,20.13
2018-11-27T10:00:49.791Z,22.03
2018-11-27T10:03:19.417Z,20.10
2018-11-27T10:05:49.018Z,22.40
2018-11-27T10:08:18.597Z,21.40
2018-11-27T10:10:48.422Z,21.13
2018-11-27T10:13:18.096Z,22.00
2018-11-27T10:15:47.845Z,20.37
2018-11-27T10:18:17.700Z,20.50
2018-11-27T10:20:47.737Z,21.40
2018-11-27T10:23:17.757Z,21.60
2018-11-27T10:25:47.570Z,20.03
2018-11-27T10:28:17.477Z,20.10
2018-11-27T10:30:47.901Z,21.07
2018-11-27T10:33:17.827Z,22.00
2018-11-27T10:35:50.931Z,21.47
2018-11-27T10:38:20.915Z,21.53
2018-11-27T10:40:50.659Z,22.40
2018-11-27T10:43:20.332Z,22.07
2018-11-27T10:45:50.028Z,22.37
2018-11-27T10:48:19.835Z,22.13
2018-11-27T10:50:49.758Z,20.23
2018-11-27T10:53:19.657Z,22.23
2018-11-27T10:55:49.266Z,22.17
2018-11-27T10:58:19.087Z,22.07
2018-11-27T11:00:52.816Z,20.60
2018-11-27T11:03:26.586Z,22.13
2018-11-27T11:05:56.917Z,22.33
2018-11-27T11:08:26.545Z,23.60
2018-11-27T11:10:56.156Z,21.90
2018-11-27T11:13:25.900Z,25.27
2018-11-27T11:15:55.721Z,24.50
2018-11-27T11:18:25.446Z,25.37
2018-11-27T11:20:55.226Z,24.53
2018-11-27T11:23:25.078Z,20.87
2018-11-27T11:25:54.686Z,22.00
2018-11-27T11:28:30.750Z,19.60
2018-11-27T11:31:00.532Z,18.10
2018-11-27T11:33:30.358Z,17.90
2018-11-27T11:36:00.264Z,18.23
2018-11-27T11:38:29.983Z,18.33
2018-11-27T11:40:59.795Z,17.67
2018-11-27T11:43:29.429Z,18.60
2018-11-27T11:45:59.218Z,19.90
2018-11-27T11:48:29.158Z,18.27
2018-11-27T11:50:58.803Z,18.30
2018-11-27T11:53:28.543Z,19.03
2018-11-27T11:55:58.356Z,19.77
2018-11-27T11:58:28.266Z,19.77
2018-11-27T12:00:58.481Z,23.17
2018-11-27T12:03:28.310Z,20.13
2018-11-27T12:05:57.930Z,21.07
2018-11-27T12:08:27.612Z,21.07
2018-11-27T12:10:58.905Z,20.17
2018-11-27T12:13:29.148Z,20.73
2018-11-27T12:15:59.744Z,20.13
2018-11-27T12:18:30.318Z,20.43
2018-11-27T12:20:59.935Z,20.27
2018-11-27T12:23:29.545Z,20.30
2018-11-27T12:25:59.142Z,22.80
2018-11-27T12:28:28.691Z,22.03
2018-11-27T12:30:58.363Z,23.77
2018-11-27T12:33:28.076Z,22.50
2018-11-27T12:35:57.635Z,21.40
2018-11-27T12:38:27.277Z,22.73
2018-11-27T12:40:56.875Z,23.27
2018-11-27T12:43:26.611Z,23.10
2018-11-27T12:45:57.839Z,23.33
2018-11-27T12:48:30.016Z,24.87
2018-11-27T12:51:02.318Z,24.43
2018-11-27T12:53:32.078Z,25.10
2018-11-27T12:56:01.890Z,26.53
2018-11-27T12:58:33.644Z,26.03
2018-11-27T13:01:09.346Z,24.87
2018-11-27T13:03:35.280Z,26.07
2018-11-27T13:06:06.075Z,27.00
2018-11-27T13:08:35.852Z,27.93
2018-11-27T13:11:11.574Z,29.40
2018-11-27T13:13:39.851Z,31.63
2018-11-27T13:16:09.997Z,29.80
2018-11-27T13:18:40.295Z,30.50
2018-11-27T13:21:10.285Z,31.27
2018-11-27T13:23:39.933Z,30.00
2018-11-27T13:26:09.546Z,29.37
2018-11-27T13:28:39.193Z,30.63
2018-11-27T13:31:10.969Z,29.13
2018-11-27T13:33:50.854Z,26.77
2018-11-27T13:36:20.767Z,25.07
2018-11-27T13:38:50.395Z,26.07
2018-11-27T13:41:20.076Z,25.80
2018-11-27T13:43:49.793Z,25.43
2018-11-27T13:46:19.393Z,25.63
2018-11-27T13:48:48.917Z,24.80
2018-11-27T13:51:18.745Z,25.23
2018-11-27T13:53:48.360Z,23.43
2018-11-27T13:56:18.014Z,24.40
2018-11-27T13:58:47.692Z,26.53
2018-11-27T14:01:17.234Z,26.33
2018-11-27T14:03:46.940Z,28.27
2018-11-27T14:06:16.646Z,26.00
2018-11-27T14:08:46.377Z,27.03
2018-11-27T14:11:19.178Z,28.57
2018-11-27T14:13:46.079Z,25.30
2018-11-27T14:16:15.788Z,26.47
2018-11-27T14:18:45.601Z,26.60
2018-11-27T14:21:15.303Z,26.13
2018-11-27T14:23:46.699Z,28.93
2018-11-27T14:26:16.462Z,28.13
2018-11-27T14:28:46.107Z,28.23
2018-11-27T14:31:15.586Z,28.83
2018-11-27T14:33:45.183Z,29.97
2018-11-27T14:36:14.835Z,31.90
2018-11-27T14:38:44.497Z,31.10
2018-11-27T14:41:14.148Z,33.07
2018-11-27T14:43:43.850Z,32.97
2018-11-27T14:46:13.461Z,28.80
2018-11-27T14:48:43.032Z,30.67
2018-11-27T14:51:12.771Z,27.03
2018-11-27T14:53:42.321Z,25.90
2018-11-27T14:56:12.040Z,27.53
2018-11-27T14:58:41.851Z,28.57
2018-11-27T15:01:11.667Z,31.17
2018-11-27T15:03:41.274Z,38.77
2018-11-27T15:06:10.921Z,37.57
2018-11-27T15:08:40.915Z,39.20
2018-11-27T15:11:12.802Z,27.87
2018-11-27T15:13:40.169Z,26.63
2018-11-27T15:16:09.921Z,26.60
2018-11-27T15:18:40.031Z,26.53
2018-11-27T15:21:09.702Z,25.73
2018-11-27T15:23:39.451Z,24.17
2018-11-27T15:26:09.190Z,22.20
2018-11-27T15:28:38.859Z,22.50
2018-11-27T15:31:08.627Z,21.27
2018-11-27T15:33:38.185Z,22.30
2018-11-27T15:36:08.035Z,22.40
2018-11-27T15:38:37.797Z,22.70
2018-11-27T15:41:08.027Z,23.23
2018-11-27T15:43:37.728Z,25.40
2018-11-27T15:46:07.352Z,22.50
2018-11-27T15:48:36.982Z,24.23
2018-11-27T15:51:06.842Z,24.70
2018-11-27T15:53:36.389Z,24.83
2018-11-27T15:56:06.293Z,25.27
2018-11-27T15:58:35.953Z,23.93
2018-11-27T16:01:05.592Z,24.20
2018-11-27T16:03:35.218Z,23.40
2018-11-27T16:06:04.882Z,25.10
2018-11-27T16:08:34.708Z,23.50
2018-11-27T16:11:04.408Z,26.13
2018-11-27T16:13:34.005Z,27.77
2018-11-27T16:16:03.648Z,27.07
2018-11-27T16:18:41.849Z,26.20
2018-11-27T16:21:19.428Z,25.63
2018-11-27T16:23:50.894Z,26.80
2018-11-27T16:26:27.092Z,27.10
2018-11-27T16:29:01.347Z,26.03
2018-11-27T16:31:35.888Z,27.37
2018-11-27T16:34:07.205Z,25.80
2018-11-27T16:36:36.843Z,24.70
2018-11-27T16:39:12.237Z,24.77
2018-11-27T16:41:41.903Z,24.37
2018-11-27T16:44:11.988Z,25.23
2018-11-27T16:46:41.588Z,27.53
2018-11-27T16:49:11.196Z,27.27
2018-11-27T16:51:41.102Z,30.03
2018-11-27T16:54:17.406Z,26.93
2018-11-27T16:56:47.489Z,25.70
2018-11-27T16:59:17.278Z,26.13
2018-11-27T17:01:47.011Z,24.20
2018-11-27T17:04:16.641Z,25.53
2018-11-27T17:06:46.296Z,26.20
2018-11-27T17:09:15.954Z,26.07
2018-11-27T17:11:45.639Z,29.23
2018-11-27T17:14:15.391Z,31.33
2018-11-27T17:16:45.103Z,28.80
2018-11-27T17:19:14.796Z,30.73
2018-11-27T17:21:44.507Z,31.57
2018-11-27T17:24:14.258Z,35.50
2018-11-27T17:26:48.106Z,30.80
2018-11-27T17:29:18.943Z,29.50
2018-11-27T17:31:48.618Z,29.40
2018-11-27T17:34:18.511Z,27.03
2018-11-27T17:36:48.221Z,26.80
2018-11-27T17:39:17.957Z,31.60
2018-11-27T17:41:47.572Z,32.00
2018-11-27T17:44:18.267Z,30.43
2018-11-27T17:46:48.041Z,30.00
2018-11-27T17:49:18.768Z,30.80
2018-11-27T17:51:48.421Z,30.10
2018-11-27T17:54:19.191Z,30.67
2018-11-27T17:56:49.943Z,35.33
2018-11-27T17:59:19.687Z,34.60
2018-11-27T18:01:49.419Z,38.73
2018-11-27T18:04:19.122Z,42.73
2018-11-27T18:06:48.935Z,44.93
2018-11-27T18:09:18.783Z,44.23
2018-11-27T18:11:48.901Z,45.17
2018-11-27T18:14:24.823Z,48.57
2018-11-27T18:16:55.736Z,45.73
2018-11-27T18:19:25.822Z,44.60
2018-11-27T18:22:00.340Z,44.60
2018-11-27T18:24:30.870Z,41.23
2018-11-27T18:27:00.641Z,38.83
2018-11-27T18:29:34.776Z,40.43
2018-11-27T18:32:08.138Z,37.57
2018-11-27T18:34:41.751Z,37.60
2018-11-27T18:37:15.383Z,36.87
2018-11-27T18:39:44.976Z,35.93
2018-11-27T18:42:15.059Z,35.50
2018-11-27T18:44:45.931Z,33.27
2018-11-27T18:47:17.342Z,31.53
2018-11-27T18:49:48.673Z,32.03
2018-11-27T18:52:20.714Z,31.83
2018-11-27T18:54:52.166Z,31.93
2018-11-27T18:57:22.520Z,33.30
2018-11-27T19:00:02.196Z,33.83
2018-11-27T19:02:36.689Z,32.30
2018-11-27T19:05:08.523Z,31.10
2018-11-27T19:07:39.337Z,32.47
2018-11-27T19:10:21.139Z,31.27
2018-11-27T19:12:52.716Z,35.67
2018-11-27T19:15:36.388Z,38.07
2018-11-27T19:18:20.140Z,34.70
2018-11-27T19:20:50.485Z,35.90
2018-11-27T19:23:26.946Z,35.23
2018-11-27T19:26:03.309Z,32.53
2018-11-27T19:28:33.670Z,33.67
2018-11-27T19:31:09.493Z,35.87
2018-11-27T19:33:39.749Z,35.17
2018-11-27T19:38:45.137Z,37.37
2018-11-27T19:41:18.185Z,33.97
2018-11-27T19:43:51.784Z,36.80
2018-11-27T19:46:23.764Z,39.17
2018-11-27T19:48:54.986Z,37.17
2018-11-27T19:51:30.018Z,37.30
2018-11-27T19:54:03.111Z,40.37
2018-11-27T19:56:36.294Z,38.67
2018-11-27T19:59:07.836Z,39.47
2018-11-27T20:01:41.628Z,38.80
2018-11-27T20:04:16.611Z,37.27
2018-11-27T20:06:52.807Z,39.20
2018-11-27T20:09:33.371Z,38.40
2018-11-27T20:12:08.843Z,35.17
2018-11-27T20:14:43.537Z,36.83
2018-11-27T20:17:16.038Z,36.80
2018-11-27T20:19:50.562Z,37.13
2018-11-27T20:22:21.773Z,37.77
2018-11-27T20:24:54.666Z,37.17
2018-11-27T20:27:24.555Z,37.23
2018-11-27T20:29:54.499Z,32.83
2018-11-27T20:32:27.402Z,31.13
2018-11-27T20:34:58.405Z,31.93
2018-11-27T20:37:28.149Z,32.83
2018-11-27T20:39:59.392Z,33.10
2018-11-27T20:42:33.624Z,32.87
2018-11-27T20:45:19.313Z,34.77
2018-11-27T20:47:45.634Z,33.87
2018-11-27T20:50:21.474Z,33.47
2018-11-27T20:52:51.175Z,31.57
2018-11-27T20:55:22.815Z,34.73
2018-11-27T20:58:02.064Z,33.93
2018-11-27T21:00:39.913Z,34.53
2018-11-27T21:03:12.821Z,37.53
2018-11-27T21:05:42.578Z,34.90
2018-11-27T21:08:12.216Z,33.47
2018-11-27T21:10:46.791Z,30.33
2018-11-27T21:13:18.645Z,28.60
2018-11-27T21:15:48.486Z,29.53
2018-11-27T21:18:18.792Z,33.40
2018-11-27T21:20:51.803Z,33.93
2018-11-27T21:23:23.280Z,34.80
2018-11-27T21:25:56.432Z,33.93
2018-11-27T21:28:24.170Z,34.27
2018-11-27T21:30:53.978Z,34.47
2018-11-27T21:33:26.143Z,32.60
2018-11-27T21:35:59.548Z,28.10
2018-11-27T21:38:34.829Z,27.10
2018-11-27T21:41:08.446Z,33.23
2018-11-27T21:43:40.036Z,30.63
2018-11-27T21:46:16.105Z,31.07
2018-11-27T21:48:45.888Z,27.03
2018-11-27T21:51:20.039Z,29.43
2018-11-27T21:53:56.784Z,30.30
2018-11-27T21:56:28.124Z,31.33
2018-11-27T21:58:57.685Z,29.97
2018-11-27T22:01:36.942Z,24.93
2018-11-27T22:04:06.978Z,23.20
2018-11-27T22:06:36.944Z,21.23
2018-11-27T22:09:08.251Z,23.53
2018-11-27T22:11:38.251Z,26.07
2018-11-27T22:14:08.374Z,27.13
2018-11-27T22:16:38.074Z,27.80
2018-11-27T22:19:11.261Z,26.90
2018-11-27T22:21:41.076Z,28.10
2018-11-27T22:24:11.194Z,26.60
2018-11-27T22:26:41.000Z,29.17
2018-11-27T22:29:10.945Z,25.23
2018-11-27T22:31:40.529Z,25.73
2018-11-27T22:34:10.227Z,25.77
2018-11-27T22:36:39.937Z,25.30
2018-11-27T22:39:10.311Z,29.17
2018-11-27T22:41:39.915Z,23.13
2018-11-27T22:44:09.643Z,22.97
2018-11-27T22:46:39.685Z,22.23
2018-11-27T22:49:09.903Z,21.67
2018-11-27T22:51:39.512Z,24.13
2018-11-27T22:54:09.127Z,23.10
2018-11-27T22:56:38.836Z,21.87
2018-11-27T22:59:08.463Z,21.00
2018-11-27T23:01:41.140Z,25.83
2018-11-27T23:04:10.827Z,27.90
2018-11-27T23:06:40.538Z,34.90
2018-11-27T23:09:10.546Z,29.07
2018-11-27T23:11:40.145Z,27.47
2018-11-27T23:14:09.785Z,29.63
2018-11-27T23:16:39.468Z,26.97
2018-11-27T23:19:09.177Z,25.17
2018-11-27T23:21:38.837Z,24.60
2018-11-27T23:24:08.591Z,28.33
2018-11-27T23:26:38.218Z,29.00
2018-11-27T23:29:07.908Z,29.90
2018-11-27T23:31:37.621Z,31.00
2018-11-27T23:34:07.292Z,30.60
2018-11-27T23:36:36.952Z,26.50
2018-11-27T23:39:08.790Z,27.60
2018-11-27T23:41:38.491Z,24.57
2018-11-27T23:44:08.206Z,27.00
2018-11-27T23:46:37.806Z,30.53
2018-11-27T23:49:07.454Z,28.43
2018-11-27T23:51:37.003Z,28.60
2018-11-27T23:54:07.174Z,28.43
2018-11-27T23:56:36.815Z,27.97
2018-11-27T23:59:06.547Z,25.40
